Time;durP1;ratioP1;P1;durP2;ratioP2;P2;SDS_P1;SDS_P2;PMS_P1;PMS_P2;Temp;Humidity;BMP_temperature;BMP_pressure;BME280_temperature;BME280_humidity;BME280_pressure;Samples;Min_cycle;Max_cycle;Signal;HPM_P1;HPM_P2
2022/07/29 00:00:38;;;;;;;5.15;1.95;;;17.00;99.90;;;;;;4892066;29;20088;-77
2022/07/29 00:03:04;;;;;;;5.38;2.20;;;16.90;99.90;;;;;;4892140;29;20048;-77
2022/07/29 00:05:29;;;;;;;5.40;2.17;;;17.00;99.90;;;;;;4892909;29;20076;-77
2022/07/29 00:07:55;;;;;;;3.08;1.70;;;16.90;99.90;;;;;;4896058;29;20124;-79
2022/07/29 00:10:21;;;;;;;5.03;2.08;;;16.80;99.90;;;;;;4875994;29;20059;-79
2022/07/29 00:12:47;;;;;;;5.97;2.17;;;16.80;99.90;;;;;;4894133;29;20048;-78
2022/07/29 00:15:13;;;;;;;5.07;2.15;;;16.80;99.90;;;;;;4895762;29;20055;-80
2022/07/29 00:17:38;;;;;;;7.38;2.35;;;16.80;99.90;;;;;;4894624;29;20088;-77
2022/07/29 00:20:05;;;;;;;4.57;2.20;;;16.80;99.90;;;;;;4894346;29;20075;-78
2022/07/29 00:22:31;;;;;;;4.43;1.83;;;16.80;99.90;;;;;;4894920;29;20534;-79
2022/07/29 00:24:57;;;;;;;4.65;2.30;;;16.80;99.90;;;;;;4890628;29;20040;-80
2022/07/29 00:27:22;;;;;;;3.95;2.20;;;16.80;99.90;;;;;;4895479;29;20045;-79
2022/07/29 00:29:48;;;;;;;5.10;2.40;;;16.80;99.90;;;;;;4892543;29;20052;-76
2022/07/29 00:32:14;;;;;;;5.53;2.53;;;16.70;99.90;;;;;;4893999;29;20068;-79
2022/07/29 00:37:24;;;;;;;4.95;2.67;;;16.70;99.90;;;;;;4894411;29;20469;-79
2022/07/29 00:39:50;;;;;;;3.83;2.10;;;16.60;99.90;;;;;;4889960;29;20040;-78
2022/07/29 00:42:16;;;;;;;5.13;2.30;;;16.60;99.90;;;;;;4894072;29;20045;-78
2022/07/29 00:44:43;;;;;;;4.30;2.60;;;16.60;99.90;;;;;;4892662;29;21196;-80
2022/07/29 00:47:12;;;;;;;6.18;2.55;;;16.60;99.90;;;;;;4891848;29;20056;-77
2022/07/29 00:49:39;;;;;;;4.65;2.42;;;16.70;99.90;;;;;;4886715;29;20135;-77
2022/07/29 00:52:05;;;;;;;;;;;16.60;99.90;;;;;;4875028;29;20044;-78
2022/07/29 00:54:32;;;;;;;4.18;2.08;;;16.50;99.90;;;;;;4894814;29;19923;-78
2022/07/29 00:56:58;;;;;;;;;;;16.50;99.90;;;;;;4893370;29;20520;-77
2022/07/29 00:59:25;;;;;;;4.07;2.10;;;16.50;99.90;;;;;;4892474;29;19977;-77
2022/07/29 01:01:51;;;;;;;4.28;2.58;;;16.50;99.90;;;;;;4873231;29;20494;-77
2022/07/29 01:04:16;;;;;;;5.40;2.20;;;16.50;99.90;;;;;;4890748;29;20051;-79
2022/07/29 01:06:42;;;;;;;5.55;2.22;;;16.40;99.90;;;;;;4890021;29;20057;-79
2022/07/29 01:09:09;;;;;;;3.00;2.30;;;16.40;99.90;;;;;;4894201;29;20052;-78
2022/07/29 01:11:35;;;;;;;5.63;2.90;;;16.40;99.90;;;;;;4895408;29;20048;-78
2022/07/29 01:14:02;;;;;;;5.47;2.23;;;16.40;99.90;;;;;;4891781;29;20053;-79
2022/07/29 01:16:32;;;;;;;5.50;2.40;;;16.30;99.90;;;;;;4890084;29;20315;-79
2022/07/29 01:19:18;;;;;;;3.80;2.28;;;16.30;99.90;;;;;;4891648;29;20563;-79
2022/07/29 01:21:55;;;;;;;5.53;2.45;;;16.40;99.90;;;;;;4892257;29;20055;-79
2022/07/29 01:24:42;;;;;;;5.30;2.55;;;16.40;99.90;;;;;;4892301;29;20075;-79
2022/07/29 01:27:46;;;;;;;5.35;2.55;;;16.40;99.90;;;;;;4872915;29;20082;-78
2022/07/29 01:30:12;;;;;;;4.88;2.35;;;16.40;99.90;;;;;;4879594;29;20045;-78
2022/07/29 01:32:40;;;;;;;5.25;2.40;;;16.30;99.90;;;;;;4893455;29;20041;-77
2022/07/29 01:35:09;;;;;;;5.45;2.60;;;16.30;99.90;;;;;;4888487;29;20118;-79
2022/07/29 01:37:49;;;;;;;6.25;2.72;;;16.30;99.90;;;;;;4892707;29;20074;-79
2022/07/29 01:40:26;;;;;;;6.50;2.55;;;16.30;99.90;;;;;;4893442;29;20470;-79
2022/07/29 01:42:56;;;;;;;4.53;2.47;;;16.30;99.90;;;;;;4889459;29;20089;-80
2022/07/29 01:45:36;;;;;;;8.05;2.47;;;16.30;99.90;;;;;;4883213;29;20500;-78
2022/07/29 01:48:10;;;;;;;4.15;2.50;;;16.30;99.90;;;;;;4893397;29;20055;-81
2022/07/29 01:51:16;;;;;;;7.60;2.80;;;16.20;99.90;;;;;;4894862;29;20047;-79
2022/07/29 01:54:08;;;;;;;4.43;2.28;;;16.30;99.90;;;;;;4890256;29;20130;-80
2022/07/29 01:56:36;;;;;;;4.40;2.55;;;16.30;99.90;;;;;;4889855;29;20133;-77
2022/07/29 01:59:04;;;;;;;4.25;2.33;;;16.30;99.90;;;;;;4894104;29;20044;-79
2022/07/29 02:01:32;;;;;;;5.13;2.50;;;16.30;99.90;;;;;;4891428;29;20488;-78
2022/07/29 02:04:01;;;;;;;6.55;2.50;;;16.30;99.90;;;;;;4887928;29;20072;-78
2022/07/29 02:06:30;;;;;;;6.30;2.50;;;16.30;99.90;;;;;;4878102;29;20083;-78
2022/07/29 02:08:57;;;;;;;4.15;2.35;;;16.30;99.90;;;;;;4874699;29;20148;-78
2022/07/29 02:11:22;;;;;;;4.65;2.53;;;16.30;99.90;;;;;;4893517;29;20052;-79
2022/07/29 02:13:52;;;;;;;4.78;2.35;;;16.30;99.90;;;;;;4890508;29;20040;-80
2022/07/29 02:16:20;;;;;;;3.95;2.40;;;16.30;99.90;;;;;;4892544;29;20053;-78
2022/07/29 02:18:50;;;;;;;3.28;2.30;;;16.30;99.90;;;;;;4892641;29;20087;-78
2022/07/29 02:21:21;;;;;;;5.40;2.40;;;16.30;99.90;;;;;;4893450;29;20476;-80
2022/07/29 02:23:49;;;;;;;5.20;2.47;;;16.30;99.90;;;;;;4891085;29;20701;-79
2022/07/29 02:26:16;;;;;;;6.97;2.90;;;16.20;99.90;;;;;;4892820;29;20100;-80
2022/07/29 02:28:43;;;;;;;5.53;2.33;;;16.20;99.90;;;;;;4891730;29;20044;-79
2022/07/29 02:31:10;;;;;;;5.13;2.75;;;16.20;99.90;;;;;;4892150;29;20396;-79
2022/07/29 02:33:39;;;;;;;3.75;2.28;;;16.20;99.90;;;;;;4891255;29;20083;-78
2022/07/29 02:36:05;;;;;;;4.05;2.45;;;16.20;99.90;;;;;;4889481;29;20053;-80
2022/07/29 02:38:50;;;;;;;3.90;2.17;;;16.20;99.90;;;;;;4892594;29;20057;-77
2022/07/29 02:41:19;;;;;;;5.15;2.30;;;16.20;99.90;;;;;;4891714;29;20048;-79
2022/07/29 02:43:48;;;;;;;4.45;2.10;;;16.20;99.90;;;;;;4894187;29;20044;-77
2022/07/29 02:46:20;;;;;;;5.20;2.45;;;16.20;99.90;;;;;;4888427;29;20053;-77
2022/07/29 02:48:55;;;;;;;4.57;2.20;;;16.20;99.90;;;;;;4888672;29;20045;-79
2022/07/29 02:51:32;;;;;;;7.70;2.42;;;16.20;99.90;;;;;;4893206;29;20062;-79
2022/07/29 02:54:01;;;;;;;5.13;2.20;;;16.10;99.90;;;;;;4891065;29;20055;-78
2022/07/29 02:56:34;;;;;;;6.72;2.40;;;16.10;99.90;;;;;;4892625;29;20048;-78
2022/07/29 02:59:04;;;;;;;5.20;2.22;;;16.10;99.90;;;;;;4887702;29;20518;-78
2022/07/29 03:01:32;;;;;;;7.80;2.35;;;16.10;99.90;;;;;;4891822;29;20044;-80
2022/07/29 03:04:01;;;;;;;6.57;2.00;;;16.10;99.90;;;;;;4886687;29;20052;-79
2022/07/29 03:06:28;;;;;;;3.78;2.20;;;16.10;99.90;;;;;;4890648;29;20057;-79
2022/07/29 03:08:55;;;;;;;;;;;16.10;99.90;;;;;;4890180;29;20051;-78
2022/07/29 03:11:21;;;;;;;4.87;2.30;;;16.10;99.90;;;;;;4877279;29;19931;-78
2022/07/29 03:13:47;;;;;;;4.77;2.30;;;16.00;99.90;;;;;;4891367;29;20822;-77
2022/07/29 03:16:14;;;;;;;4.63;2.22;;;16.00;99.90;;;;;;4891012;29;20477;-82
2022/07/29 03:18:40;;;;;;;6.60;2.45;;;16.00;99.90;;;;;;4892459;29;20171;-79
2022/07/29 03:21:05;;;;;;;5.38;2.42;;;16.00;99.90;;;;;;4891118;29;20116;-79
2022/07/29 03:23:31;;;;;;;4.82;2.30;;;16.00;99.90;;;;;;4893607;29;20056;-79
2022/07/29 03:25:57;;;;;;;4.03;2.28;;;16.00;99.90;;;;;;4892310;29;20059;-78
2022/07/29 03:28:23;;;;;;;4.20;2.20;;;16.00;99.90;;;;;;4871885;29;20056;-79
2022/07/29 03:30:49;;;;;;;6.20;2.38;;;16.00;99.90;;;;;;4896505;29;20404;-79
2022/07/29 03:33:15;;;;;;;3.97;2.25;;;16.00;99.90;;;;;;4897494;29;20051;-78
2022/07/29 03:35:41;;;;;;;4.63;2.38;;;16.00;99.90;;;;;;4892566;29;20044;-80
2022/07/29 03:38:07;;;;;;;6.90;2.50;;;16.00;99.90;;;;;;4878428;29;20544;-78
2022/07/29 03:40:37;;;;;;;5.18;2.40;;;16.00;99.90;;;;;;4897662;29;20076;-79
2022/07/29 03:43:05;;;;;;;4.10;2.53;;;15.90;99.90;;;;;;4896386;29;20103;-80
2022/07/29 03:45:31;;;;;;;;;;;15.90;99.90;;;;;;4897473;29;20055;-80
2022/07/29 03:48:01;;;;;;;4.30;2.27;;;15.90;99.90;;;;;;4878670;29;20014;-78
2022/07/29 03:50:30;;;;;;;4.82;2.45;;;15.80;99.90;;;;;;4895614;29;20056;-80
2022/07/29 03:52:56;;;;;;;3.88;2.50;;;15.80;99.90;;;;;;4894780;29;20535;-80
2022/07/29 03:55:22;;;;;;;4.57;2.53;;;15.80;99.90;;;;;;4892505;29;20058;-78
2022/07/29 03:57:50;;;;;;;7.05;2.42;;;15.80;99.90;;;;;;4892485;29;20052;-79
2022/07/29 04:00:16;;;;;;;5.75;2.20;;;15.70;99.90;;;;;;4895763;29;20125;-79
2022/07/29 04:02:47;;;;;;;5.82;2.25;;;15.80;99.90;;;;;;4891068;29;20051;-77
2022/07/29 04:05:14;;;;;;;4.65;2.40;;;15.70;99.90;;;;;;4892828;29;20071;-78
2022/07/29 04:07:47;;;;;;;4.85;2.30;;;15.70;99.90;;;;;;4895587;29;20508;-78
2022/07/29 04:10:17;;;;;;;4.95;2.40;;;15.70;99.90;;;;;;4890116;29;20044;-79
2022/07/29 04:12:43;;;;;;;3.55;2.20;;;15.70;99.90;;;;;;4891086;29;20048;-78
2022/07/29 04:15:09;;;;;;;3.47;2.20;;;15.70;99.90;;;;;;4875924;29;20096;-78
2022/07/29 04:17:35;;;;;;;10.30;2.90;;;15.70;99.90;;;;;;4895865;29;20049;-80
2022/07/29 04:20:00;;;;;;;5.32;2.40;;;15.70;99.90;;;;;;4895184;29;20400;-79
2022/07/29 04:22:26;;;;;;;5.65;2.90;;;15.70;99.90;;;;;;4895729;29;20388;-79
2022/07/29 04:24:52;;;;;;;4.45;2.22;;;15.60;99.90;;;;;;4891690;29;20059;-79
2022/07/29 04:27:17;;;;;;;4.53;2.42;;;15.60;99.90;;;;;;4893952;29;20059;-80
2022/07/29 04:29:43;;;;;;;6.07;2.40;;;15.60;99.90;;;;;;4892791;29;20056;-79
2022/07/29 04:32:09;;;;;;;5.25;2.40;;;15.60;99.90;;;;;;4894168;29;20402;-78
2022/07/29 04:34:34;;;;;;;5.93;2.92;;;15.70;99.90;;;;;;4895624;29;20104;-78
2022/07/29 04:37:00;;;;;;;5.65;2.30;;;15.70;99.90;;;;;;4884335;29;20441;-79
2022/07/29 04:39:25;;;;;;;8.07;2.65;;;15.70;99.90;;;;;;4895943;29;20401;-78
2022/07/29 04:41:51;;;;;;;6.47;2.47;;;15.70;99.90;;;;;;4878500;29;20066;-79
2022/07/29 04:44:17;;;;;;;6.30;2.38;;;15.70;99.90;;;;;;4895609;29;20040;-80
2022/07/29 04:46:42;;;;;;;5.63;2.38;;;15.70;99.90;;;;;;4894311;29;20045;-79
2022/07/29 04:49:08;;;;;;;5.07;2.28;;;15.70;99.90;;;;;;4893890;29;20101;-77
2022/07/29 04:51:34;;;;;;;6.20;2.75;;;15.70;99.90;;;;;;4889360;29;20060;-78
2022/07/29 04:54:00;;;;;;;6.20;2.30;;;15.70;99.90;;;;;;4894212;29;20059;-77
2022/07/29 04:56:26;;;;;;;6.53;2.38;;;15.80;99.90;;;;;;4892844;29;20051;-79
2022/07/29 04:58:51;;;;;;;7.45;2.53;;;15.80;99.90;;;;;;4891388;29;20135;-78
2022/07/29 05:01:17;;;;;;;4.38;2.22;;;15.80;99.90;;;;;;4893039;29;20051;-79
2022/07/29 05:03:45;;;;;;;5.05;2.10;;;15.80;99.90;;;;;;4892835;29;20044;-78
2022/07/29 05:06:10;;;;;;;3.92;2.55;;;15.80;99.90;;;;;;4875604;29;20497;-79
2022/07/29 05:08:36;;;;;;;7.22;2.60;;;15.80;99.90;;;;;;4892711;29;20041;-77
2022/07/29 05:11:02;;;;;;;5.28;2.38;;;15.80;99.90;;;;;;4875145;29;20131;-79
2022/07/29 05:13:27;;;;;;;5.00;2.70;;;15.80;99.90;;;;;;4876212;29;20116;-77
2022/07/29 05:15:53;;;;;;;6.07;2.30;;;15.80;99.90;;;;;;4893306;29;20052;-79
2022/07/29 05:18:19;;;;;;;5.40;2.40;;;15.80;99.90;;;;;;4892080;29;20048;-79
2022/07/29 05:20:44;;;;;;;5.60;2.53;;;15.80;99.90;;;;;;4892192;29;20040;-77
2022/07/29 05:23:12;;;;;;;6.50;2.70;;;15.80;99.90;;;;;;4891850;29;20140;-78
2022/07/29 05:25:38;;;;;;;6.80;2.45;;;15.80;99.90;;;;;;4873812;29;20060;-78
2022/07/29 05:28:04;;;;;;;3.83;2.63;;;15.80;99.90;;;;;;4868926;29;20045;-79
2022/07/29 05:30:29;;;;;;;5.05;2.33;;;15.80;99.90;;;;;;4877623;29;20052;-78
2022/07/29 05:32:55;;;;;;;4.65;2.80;;;15.90;99.90;;;;;;4897122;29;20092;-79
2022/07/29 05:35:21;;;;;;;5.05;2.42;;;15.90;99.90;;;;;;4888855;29;20405;-77
2022/07/29 05:37:46;;;;;;;8.07;2.60;;;16.00;99.90;;;;;;4887889;29;20415;-74
2022/07/29 05:40:12;;;;;;;7.43;2.58;;;16.10;99.90;;;;;;4892560;29;20089;-73
2022/07/29 05:42:38;;;;;;;4.38;2.40;;;16.10;99.90;;;;;;4891607;29;20574;-74
2022/07/29 05:45:04;;;;;;;6.85;2.42;;;16.20;99.90;;;;;;4890901;29;20063;-75
2022/07/29 05:47:33;;;;;;;6.38;2.60;;;16.30;99.90;;;;;;4890169;29;20440;-73
2022/07/29 05:50:06;;;;;;;4.90;2.13;;;16.30;99.90;;;;;;4889588;29;20083;-76
2022/07/29 05:52:35;;;;;;;4.68;2.30;;;16.30;99.90;;;;;;4887542;29;20048;-77
2022/07/29 05:55:04;;;;;;;6.45;2.95;;;16.30;99.90;;;;;;4887627;29;20051;-75
2022/07/29 05:57:30;;;;;;;5.03;2.47;;;16.30;99.90;;;;;;4874154;29;20059;-78
2022/07/29 05:59:57;;;;;;;4.43;2.40;;;16.30;99.90;;;;;;4889287;29;20049;-78
2022/07/29 06:02:23;;;;;;;6.88;2.40;;;16.30;99.90;;;;;;4889886;29;20043;-76
2022/07/29 06:04:51;;;;;;;6.32;2.60;;;16.20;99.90;;;;;;4890095;29;20442;-76
2022/07/29 06:07:18;;;;;;;4.70;2.50;;;16.30;99.90;;;;;;4884924;29;20099;-76
2022/07/29 06:09:44;;;;;;;3.90;2.40;;;16.30;99.90;;;;;;4887245;29;20055;-76
2022/07/29 06:12:10;;;;;;;5.50;2.58;;;16.40;99.90;;;;;;4888343;29;20430;-76
2022/07/29 06:14:42;;;;;;;6.93;2.40;;;16.50;99.90;;;;;;4870351;29;20062;-76
2022/07/29 06:17:11;;;;;;;5.38;2.30;;;16.60;99.90;;;;;;4874385;29;20049;-75
2022/07/29 06:19:37;;;;;;;4.57;2.40;;;16.70;99.90;;;;;;4891741;29;20056;-77
2022/07/29 06:22:06;;;;;;;3.95;2.25;;;16.80;99.90;;;;;;4886408;29;20052;-75
2022/07/29 06:24:37;;;;;;;5.85;2.63;;;16.90;99.90;;;;;;4888094;29;20560;-76
2022/07/29 06:27:06;;;;;;;7.95;2.30;;;16.90;99.90;;;;;;4887239;29;20469;-75
2022/07/29 06:29:41;;;;;;;5.35;2.60;;;16.90;99.90;;;;;;4891073;29;20079;-77
2022/07/29 06:32:09;;;;;;;6.43;2.67;;;17.00;99.90;;;;;;4889303;29;20089;-78
2022/07/29 06:34:35;;;;;;;7.50;2.28;;;17.10;99.90;;;;;;4891502;29;20477;-77
2022/07/29 06:37:09;;;;;;;5.20;2.47;;;17.10;99.90;;;;;;4884634;29;20430;-76
2022/07/29 06:39:42;;;;;;;6.18;2.53;;;17.10;99.90;;;;;;4891661;29;20048;-75
2022/07/29 06:42:08;;;;;;;4.20;2.35;;;17.10;99.90;;;;;;4887363;29;20057;-75
2022/07/29 06:44:34;;;;;;;4.35;2.35;;;17.10;99.90;;;;;;4889664;29;21581;-79
2022/07/29 06:47:00;;;;;;;5.72;2.30;;;17.20;99.90;;;;;;4893336;29;20545;-75
2022/07/29 06:49:27;;;;;;;6.88;2.33;;;17.30;99.90;;;;;;4886449;29;20400;-76
2022/07/29 06:51:53;;;;;;;5.00;2.30;;;17.40;99.90;;;;;;4890411;29;20056;-76
2022/07/29 06:54:19;;;;;;;6.30;2.23;;;17.40;99.90;;;;;;4892710;29;20053;-75
2022/07/29 06:56:48;;;;;;;7.55;2.85;;;17.60;99.90;;;;;;4887977;29;20056;-76
2022/07/29 06:59:19;;;;;;;4.47;2.15;;;17.70;99.90;;;;;;4890874;29;20044;-78
2022/07/29 07:01:45;;;;;;;7.43;2.88;;;17.70;99.90;;;;;;4889134;29;20496;-81
2022/07/29 07:04:17;;;;;;;7.00;2.45;;;17.70;99.90;;;;;;4886759;29;20523;-78
2022/07/29 07:06:42;;;;;;;4.93;1.95;;;17.80;99.90;;;;;;4891088;29;20523;-78
2022/07/29 07:09:08;;;;;;;8.20;2.35;;;17.80;99.90;;;;;;4890719;29;20057;-78
2022/07/29 07:11:34;;;;;;;6.00;2.50;;;17.90;99.90;;;;;;4894102;29;20412;-76
2022/07/29 07:13:59;;;;;;;6.53;2.38;;;18.00;99.90;;;;;;4891636;29;20108;-77
2022/07/29 07:16:26;;;;;;;7.85;2.50;;;17.90;99.90;;;;;;4893987;29;20487;-78
2022/07/29 07:18:52;;;;;;;8.32;2.63;;;18.00;99.90;;;;;;4894596;29;20037;-75
2022/07/29 07:21:17;;;;;;;5.25;2.90;;;18.10;99.90;;;;;;4892127;29;20420;-76
2022/07/29 07:23:43;;;;;;;7.45;2.30;;;18.10;99.90;;;;;;4890623;29;20497;-75
2022/07/29 07:26:09;;;;;;;8.30;2.50;;;18.10;99.90;;;;;;4889333;29;20048;-75
2022/07/29 07:28:35;;;;;;;5.05;2.20;;;18.20;99.90;;;;;;4893778;29;20055;-76
2022/07/29 07:31:01;;;;;;;5.60;2.10;;;18.30;99.90;;;;;;4879744;29;20048;-76
2022/07/29 07:33:26;;;;;;;7.22;2.60;;;18.40;99.90;;;;;;4891774;29;20044;-79
2022/07/29 07:35:52;;;;;;;6.38;2.55;;;18.40;99.90;;;;;;4891788;29;20075;-78
2022/07/29 07:38:18;;;;;;;5.93;2.58;;;18.40;99.90;;;;;;4894036;29;20131;-80
2022/07/29 07:40:46;;;;;;;6.75;2.70;;;18.40;99.90;;;;;;4891594;29;20059;-78
2022/07/29 07:43:11;;;;;;;9.38;2.70;;;18.40;99.90;;;;;;4889884;29;20056;-78
2022/07/29 07:45:37;;;;;;;6.32;2.90;;;18.40;99.90;;;;;;4891367;29;20412;-80
2022/07/29 07:48:03;;;;;;;7.45;2.40;;;18.40;99.90;;;;;;4888003;29;20423;-78
2022/07/29 07:50:29;;;;;;;6.57;2.60;;;18.40;99.90;;;;;;4890894;29;20045;-79
2022/07/29 07:52:59;;;;;;;7.75;2.60;;;18.40;99.90;;;;;;4892143;29;20036;-78
2022/07/29 07:55:26;;;;;;;6.70;2.65;;;18.50;99.90;;;;;;4891958;29;20040;-74
2022/07/29 07:57:52;;;;;;;4.25;2.70;;;18.50;99.90;;;;;;4889942;29;20063;-76
2022/07/29 08:00:18;;;;;;;5.60;2.67;;;18.50;99.90;;;;;;4873044;29;20056;-76
2022/07/29 08:02:44;;;;;;;7.53;2.78;;;18.60;99.90;;;;;;4893108;29;20040;-73
2022/07/29 08:05:13;;;;;;;7.50;2.95;;;18.70;99.90;;;;;;4888882;29;20062;-74
2022/07/29 08:07:39;;;;;;;7.90;2.88;;;18.80;99.90;;;;;;4892037;29;20549;-74
2022/07/29 08:10:06;;;;;;;8.43;2.90;;;18.80;99.90;;;;;;4891846;29;20161;-76
2022/07/29 08:12:32;;;;;;;7.18;2.78;;;18.90;99.90;;;;;;4875420;29;20083;-77
2022/07/29 08:14:58;;;;;;;5.75;2.92;;;18.90;99.90;;;;;;4875702;29;20049;-77
2022/07/29 08:17:23;;;;;;;8.07;2.53;;;19.10;99.90;;;;;;4890881;29;20081;-77
2022/07/29 08:19:49;;;;;;;13.13;3.13;;;19.10;99.90;;;;;;4888281;29;20684;-78
2022/07/29 08:22:15;;;;;;;4.10;1.98;;;19.20;99.90;;;;;;4894187;29;20041;-79
2022/07/29 08:24:46;;;;;;;8.15;2.97;;;19.20;99.90;;;;;;4894205;29;20071;-76
2022/07/29 08:27:12;;;;;;;6.50;2.65;;;19.30;99.90;;;;;;4886496;29;20044;-77
2022/07/29 08:29:39;;;;;;;5.78;2.47;;;19.40;99.90;;;;;;4869073;29;20047;-76
2022/07/29 08:32:05;;;;;;;7.22;2.83;;;19.50;99.90;;;;;;4893610;29;20052;-83
2022/07/29 08:34:31;;;;;;;8.73;2.50;;;19.50;99.90;;;;;;4897106;29;20044;-78
2022/07/29 08:36:58;;;;;;;6.97;2.67;;;19.50;99.90;;;;;;4896338;29;20326;-80
2022/07/29 08:39:24;;;;;;;7.85;2.30;;;19.50;99.90;;;;;;4897139;29;20484;-82
2022/07/29 08:41:51;;;;;;;9.50;2.83;;;19.50;99.90;;;;;;4875417;29;20187;-84
2022/07/29 08:44:21;;;;;;;8.57;2.38;;;19.40;99.90;;;;;;4896200;29;20131;-80
2022/07/29 08:46:49;;;;;;;6.78;2.60;;;19.50;99.90;;;;;;4878478;29;20103;-78
2022/07/29 08:49:15;;;;;;;7.75;2.60;;;19.50;99.90;;;;;;4898134;29;20055;-79
2022/07/29 08:51:41;;;;;;;7.97;2.83;;;19.50;99.90;;;;;;4894624;29;20055;-79
2022/07/29 08:54:10;;;;;;;9.50;3.05;;;19.50;99.90;;;;;;4888750;29;20055;-81
2022/07/29 08:56:37;;;;;;;3.85;2.42;;;19.50;99.90;;;;;;4894115;29;20124;-81
2022/07/29 08:59:05;;;;;;;7.57;2.97;;;19.50;99.90;;;;;;4893144;29;20760;-80
2022/07/29 09:01:32;;;;;;;6.72;2.88;;;19.60;99.90;;;;;;4893482;29;20063;-78
2022/07/29 09:04:00;;;;;;;7.63;2.67;;;19.70;99.90;;;;;;4893154;29;20063;-82
2022/07/29 09:06:33;;;;;;;5.80;2.60;;;19.80;99.90;;;;;;4894847;29;20052;-84
2022/07/29 09:09:00;;;;;;;5.95;2.33;;;20.10;99.90;;;;;;4894841;29;20052;-84
2022/07/29 09:11:27;;;;;;;6.15;2.40;;;20.40;99.90;;;;;;4893838;29;20053;-82
2022/07/29 09:13:52;;;;;;;4.47;2.15;;;20.60;99.90;;;;;;4888829;29;20072;-84
2022/07/29 09:16:19;;;;;;;5.72;2.20;;;20.80;99.90;;;;;;4896894;29;20411;-85
2022/07/29 09:18:46;;;;;;;7.68;2.67;;;20.90;99.90;;;;;;4895610;29;20048;-81
2022/07/29 09:24:01;;;;;;;;;;;21.00;99.90;;;;;;4895802;29;20057;-76
2022/07/29 09:26:31;;;;;;;7.10;2.20;;;20.90;99.90;;;;;;4884047;29;19946;-78
2022/07/29 09:28:57;;;;;;;7.78;2.75;;;20.90;99.90;;;;;;4893385;29;20044;-79
2022/07/29 09:31:36;;;;;;;5.97;2.30;;;20.80;99.90;;;;;;4889497;29;20044;-76
2022/07/29 09:34:07;;;;;;;10.02;2.47;;;20.90;99.90;;;;;;4894671;29;20128;-78
2022/07/29 09:36:40;;;;;;;4.07;2.42;;;20.80;99.90;;;;;;4894218;29;20049;-79
2022/07/29 09:39:06;;;;;;;7.55;2.40;;;20.80;99.90;;;;;;4895763;29;20056;-78
2022/07/29 09:41:44;;;;;;;7.70;2.28;;;20.80;99.90;;;;;;4894113;29;20413;-77
2022/07/29 09:44:10;;;;;;;8.02;2.60;;;20.80;99.90;;;;;;4887771;29;20063;-76
2022/07/29 09:46:36;;;;;;;6.13;2.17;;;20.80;99.90;;;;;;4895738;29;20048;-75
2022/07/29 09:49:13;;;;;;;5.75;2.35;;;20.80;99.90;;;;;;4895247;29;20131;-77
2022/07/29 09:51:40;;;;;;;5.90;2.20;;;20.80;99.90;;;;;;4896819;29;20504;-76
2022/07/29 09:54:26;;;;;;;4.50;2.00;;;20.80;99.90;;;;;;4891498;29;20047;-73
2022/07/29 09:56:53;;;;;;;3.80;2.23;;;20.80;99.90;;;;;;4878833;29;20060;-74
2022/07/29 09:59:20;;;;;;;;;;;20.80;99.90;;;;;;4893013;29;20041;-76
2022/07/29 10:01:46;;;;;;;;;;;20.80;99.90;;;;;;4875908;29;19923;-79
2022/07/29 10:04:12;;;;;;;7.90;2.33;;;20.80;99.90;;;;;;4893776;29;20018;-77
2022/07/29 10:06:59;;;;;;;7.90;2.55;;;20.70;99.90;;;;;;4878345;29;20124;-79
2022/07/29 10:09:25;;;;;;;5.60;2.33;;;20.80;99.90;;;;;;4891228;29;20036;-76
2022/07/29 10:12:13;;;;;;;11.63;2.60;;;20.70;99.90;;;;;;4886306;29;20048;-76
2022/07/29 10:14:40;;;;;;;6.90;2.67;;;20.70;99.90;;;;;;4889757;29;20075;-76
2022/07/29 10:17:07;;;;;;;6.95;2.47;;;20.70;99.90;;;;;;4887676;29;20106;-76
2022/07/29 10:19:34;;;;;;;;;;;20.60;99.90;;;;;;4878442;29;20052;-80
2022/07/29 10:22:03;;;;;;;9.45;2.45;;;20.60;99.90;;;;;;4891631;29;19971;-80
2022/07/29 10:24:31;;;;;;;5.93;2.08;;;20.50;99.90;;;;;;4885855;29;20749;-76
2022/07/29 10:26:59;;;;;;;11.65;2.80;;;20.50;99.90;;;;;;4875715;29;20072;-79
2022/07/29 10:29:25;;;;;;;5.32;2.63;;;20.50;99.90;;;;;;4890101;29;20059;-77
2022/07/29 10:32:17;;;;;;;5.38;2.38;;;20.50;99.90;;;;;;4895081;29;20052;-77
2022/07/29 10:35:17;;;;;;;6.70;2.22;;;20.50;99.90;;;;;;4878554;29;20136;-78
2022/07/29 10:38:31;;;;;;;7.93;3.03;;;20.50;99.90;;;;;;4884317;29;20052;-76
2022/07/29 10:41:27;;;;;;;6.80;2.15;;;20.40;99.90;;;;;;4889004;29;20448;-76
2022/07/29 10:44:07;;;;;;;6.22;2.17;;;20.40;99.90;;;;;;4882172;29;20048;-77
2022/07/29 10:46:39;;;;;;;8.85;2.50;;;20.40;99.90;;;;;;4878673;29;20045;-80
2022/07/29 10:49:11;;;;;;;5.68;2.30;;;20.40;99.90;;;;;;4875373;29;20048;-79
2022/07/29 10:51:58;;;;;;;5.88;2.10;;;20.40;99.90;;;;;;4889763;29;20048;-77
2022/07/29 10:54:39;;;;;;;9.20;2.30;;;20.40;99.90;;;;;;4874637;29;20087;-75
2022/07/29 10:57:27;;;;;;;7.35;2.25;;;20.40;99.90;;;;;;4874803;29;20116;-77
2022/07/29 11:00:04;;;;;;;8.10;2.25;;;20.50;99.90;;;;;;4890769;29;20059;-80
2022/07/29 11:02:36;;;;;;;;;;;20.50;99.90;;;;;;4884449;29;20445;-76
2022/07/29 11:05:06;;;;;;;6.45;2.30;;;20.50;99.90;;;;;;4869855;29;20003;-77
2022/07/29 11:07:35;;;;;;;5.28;2.30;;;20.50;99.90;;;;;;4890751;29;20052;-77
2022/07/29 11:10:14;;;;;;;8.55;2.50;;;20.50;99.90;;;;;;4890599;29;20052;-77
2022/07/29 11:12:42;;;;;;;8.77;2.60;;;20.50;99.90;;;;;;4892735;29;20576;-80
2022/07/29 11:15:16;;;;;;;5.53;2.40;;;20.60;99.90;;;;;;4885682;29;20056;-80
2022/07/29 11:18:09;;;;;;;7.68;2.10;;;20.60;99.90;;;;;;4884604;29;20054;-80
2022/07/29 11:20:47;;;;;;;5.63;2.70;;;20.70;99.90;;;;;;4883986;29;20127;-78
2022/07/29 11:23:27;;;;;;;11.88;2.55;;;20.70;99.90;;;;;;4890482;29;20552;-84
2022/07/29 11:26:20;;;;;;;6.45;2.30;;;20.90;99.90;;;;;;4889372;29;20108;-80
2022/07/29 11:29:21;;;;;;;9.20;2.40;;;20.90;99.90;;;;;;4891306;29;20124;-82
2022/07/29 11:31:51;;;;;;;9.05;2.42;;;20.90;99.90;;;;;;4892674;29;20048;-82
2022/07/29 11:34:32;;;;;;;6.68;2.20;;;20.90;99.90;;;;;;4874938;29;20116;-82
2022/07/29 11:37:15;;;;;;;7.40;2.30;;;21.00;99.90;;;;;;4888268;29;20516;-82
2022/07/29 11:39:56;;;;;;;6.78;2.60;;;21.00;99.90;;;;;;4891218;29;20051;-80
2022/07/29 11:42:24;;;;;;;7.07;2.20;;;21.00;99.90;;;;;;4892889;29;20103;-82
2022/07/29 11:44:57;;;;;;;10.60;2.70;;;21.00;99.90;;;;;;4862849;29;20048;-80
2022/07/29 11:47:23;;;;;;;6.68;2.65;;;21.00;99.90;;;;;;4883825;29;20470;-77
2022/07/29 11:49:51;;;;;;;6.53;2.58;;;21.00;99.90;;;;;;4875118;29;20063;-77
2022/07/29 11:52:17;;;;;;;9.88;2.67;;;21.00;99.90;;;;;;4895406;29;20067;-77
2022/07/29 11:54:43;;;;;;;6.53;2.33;;;21.00;99.90;;;;;;4891256;29;20091;-79
2022/07/29 11:57:09;;;;;;;7.07;2.65;;;21.00;99.90;;;;;;4890657;29;20204;-77
2022/07/29 11:59:43;;;;;;;6.30;2.40;;;21.00;99.90;;;;;;4894568;29;20568;-75
2022/07/29 12:02:09;;;;;;;6.55;2.28;;;21.10;99.90;;;;;;4895220;29;20052;-75
2022/07/29 12:04:56;;;;;;;4.93;2.40;;;21.10;99.90;;;;;;4895027;29;20049;-76
2022/07/29 12:07:33;;;;;;;9.05;2.53;;;21.10;99.90;;;;;;4896017;29;20053;-76
2022/07/29 12:09:59;;;;;;;8.10;2.63;;;21.10;99.90;;;;;;4894941;29;20412;-75
2022/07/29 12:12:25;;;;;;;5.25;2.50;;;21.10;99.90;;;;;;4896809;29;20599;-76
2022/07/29 12:14:51;;;;;;;5.82;2.38;;;21.10;99.90;;;;;;4893450;29;20052;-77
2022/07/29 12:17:30;;;;;;;4.70;2.55;;;21.10;99.90;;;;;;4896818;29;20044;-76
2022/07/29 12:19:57;;;;;;;6.10;2.60;;;21.10;99.90;;;;;;4894455;29;20583;-77
2022/07/29 12:22:37;;;;;;;10.27;2.80;;;21.20;99.90;;;;;;4878863;29;20064;-75
2022/07/29 12:25:04;;;;;;;9.93;2.95;;;21.30;99.90;;;;;;4895762;29;20082;-75
2022/07/29 12:27:31;;;;;;;7.50;2.67;;;21.30;99.90;;;;;;4879470;29;20075;-76
2022/07/29 12:30:02;;;;;;;7.18;2.50;;;21.30;99.90;;;;;;4889027;29;20044;-75
2022/07/29 12:32:39;;;;;;;9.40;2.58;;;21.30;99.90;;;;;;4891794;29;20041;-76
2022/07/29 12:35:07;;;;;;;7.75;2.60;;;21.40;99.90;;;;;;4884952;29;20056;-76
2022/07/29 12:37:35;;;;;;;7.65;2.80;;;21.30;99.90;;;;;;4895688;29;20475;-78
2022/07/29 12:40:02;;;;;;;9.32;2.78;;;21.40;99.90;;;;;;4895886;29;20133;-76
2022/07/29 12:42:27;;;;;;;;;;;21.40;99.90;;;;;;4896943;29;20112;-74
2022/07/29 12:44:53;;;;;;;8.00;2.70;;;21.40;99.90;;;;;;4895061;29;20352;-76
2022/07/29 12:47:20;;;;;;;7.60;2.78;;;21.40;99.90;;;;;;4894818;29;20052;-76
2022/07/29 12:49:46;;;;;;;8.95;3.70;;;21.50;99.90;;;;;;4892543;29;20100;-74
2022/07/29 12:52:28;;;;;;;11.07;2.97;;;21.60;99.90;;;;;;4894804;29;20405;-75
2022/07/29 12:54:54;;;;;;;6.97;2.70;;;21.60;99.90;;;;;;4891011;29;20067;-78
2022/07/29 12:57:20;;;;;;;8.90;3.05;;;21.60;99.90;;;;;;4892862;29;20093;-77
2022/07/29 13:00:00;;;;;;;6.60;3.05;;;21.60;99.90;;;;;;4894980;29;20033;-80
2022/07/29 13:02:25;;;;;;;9.75;3.00;;;21.70;99.90;;;;;;4877815;29;20047;-76
2022/07/29 13:04:58;;;;;;;7.80;2.60;;;21.70;99.90;;;;;;4891125;29;22053;-73